Time;durP1;ratioP1;P1;durP2;ratioP2;P2;SDS_P1;SDS_P2;PMS_P1;PMS_P2;Temp;Humidity;BMP_temperature;BMP_pressure;BME280_temperature;BME280_humidity;BME280_pressure;Samples;Min_cycle;Max_cycle;Signal;HPM_P1;HPM_P2
2022/12/03 00:00:22;;;;;;;;;;;3.20;99.90;;;;;;5010506;28;19936;-96
2022/12/03 00:02:48;;;;;;;;;;;3.20;99.90;;;;;;5007545;28;19926;-95
2022/12/03 00:05:14;;;;;;;;;;;3.20;99.90;;;;;;5003708;28;19925;-94
2022/12/03 00:07:39;;;;;;;;;;;3.20;99.90;;;;;;5016873;28;19925;-95
2022/12/03 00:10:05;;;;;;;;;;;4.20;99.90;;;;;;5024451;28;20003;-95
2022/12/03 00:12:31;;;;;;;;;;;3.20;99.90;;;;;;5006712;28;20345;-95
2022/12/03 00:14:57;;;;;;;;;;;3.40;99.90;;;;;;5008516;28;19925;-94
2022/12/03 00:17:22;;;;;;;;;;;3.40;99.90;;;;;;5022050;28;19925;-92
2022/12/03 00:19:48;;;;;;;;;;;3.30;99.90;;;;;;5008151;28;19925;-94
2022/12/03 00:22:13;;;;;;;;;;;3.40;99.90;;;;;;5022220;28;20025;-94
2022/12/03 00:24:39;;;;;;;;;;;3.40;99.90;;;;;;5008046;28;19924;-94
2022/12/03 00:27:05;;;;;;;;;;;3.50;99.90;;;;;;5008026;28;19926;-93
2022/12/03 00:29:30;;;;;;;;;;;3.90;99.90;;;;;;5008526;28;19925;-94
2022/12/03 00:31:56;;;;;;;;;;;3.40;99.90;;;;;;5008073;28;19925;-94
2022/12/03 00:34:21;;;;;;;;;;;3.40;99.90;;;;;;5006576;28;19925;-95
2022/12/03 00:36:47;;;;;;;;;;;3.50;99.90;;;;;;5023596;28;19925;-93
2022/12/03 00:39:13;;;;;;;;;;;3.50;99.90;;;;;;5005859;28;19989;-93
2022/12/03 00:41:38;;;;;;;;;;;3.60;99.90;;;;;;5024195;28;19925;-93
2022/12/03 00:44:04;;;;;;;;;;;3.60;99.90;;;;;;5024260;28;19931;-94
2022/12/03 00:46:30;;;;;;;;;;;4.60;99.90;;;;;;5006695;28;19925;-94
2022/12/03 00:48:55;;;;;;;;;;;3.60;99.90;;;;;;5023364;28;19930;-93
2022/12/03 00:51:21;;;;;;;;;;;3.70;99.90;;;;;;5024450;28;19925;-92
2022/12/03 00:53:46;;;;;;;;;;;4.10;99.90;;;;;;5011387;28;19925;-93
2022/12/03 00:56:12;;;;;;;;;;;3.50;99.90;;;;;;5010170;28;19925;-93
2022/12/03 00:58:38;;;;;;;;;;;3.50;99.90;;;;;;5011565;28;19925;-93
2022/12/03 01:01:03;;;;;;;;;;;3.60;99.90;;;;;;5026634;28;19929;-93
2022/12/03 01:03:29;;;;;;;;;;;3.60;99.90;;;;;;5010344;28;20373;-94
2022/12/03 01:05:55;;;;;;;;;;;3.60;99.90;;;;;;5027328;28;20062;-95
2022/12/03 01:08:20;;;;;;;;;;;4.10;99.90;;;;;;5009227;28;19926;-93
2022/12/03 01:10:46;;;;;;;;;;;3.50;99.90;;;;;;5028037;28;19928;-93
2022/12/03 01:13:12;;;;;;;;;;;3.50;99.90;;;;;;5019713;28;19921;-94
2022/12/03 01:15:37;;;;;;;;;;;3.50;99.90;;;;;;5023483;28;19921;-93
2022/12/03 01:18:03;;;;;;;;;;;3.60;99.90;;;;;;5038942;28;19921;-94
2022/12/03 01:20:28;;;;;;;;;;;3.50;99.90;;;;;;5019662;28;19926;-94
2022/12/03 01:22:54;;;;;;;;;;;3.80;99.90;;;;;;5007555;28;19932;-95
2022/12/03 01:25:20;;;;;;;;;;;4.50;99.90;;;;;;4990440;28;19936;-94
2022/12/03 01:27:45;;;;;;;;;;;3.50;99.90;;;;;;4991318;28;19979;-93
2022/12/03 01:30:12;;;;;;;;;;;3.70;99.90;;;;;;4990420;28;19969;-91
2022/12/03 01:32:37;;;;;;;;;;;3.50;99.90;;;;;;5007910;28;19952;-94
2022/12/03 01:35:09;;;;;;;;;;;3.60;99.90;;;;;;5006960;28;19932;-94
2022/12/03 01:37:34;;;;;;;;;;;3.60;99.90;;;;;;5006295;28;19925;-93
2022/12/03 01:40:00;;;;;;;;;;;2.70;99.90;;;;;;5007819;28;19925;-93
2022/12/03 01:42:28;;;;;;;;;;;3.60;99.90;;;;;;5021760;28;19925;-95
2022/12/03 01:44:55;;;;;;;;;;;3.40;99.90;;;;;;5027704;28;19929;-94
2022/12/03 01:47:23;;;;;;;;;;;3.50;99.90;;;;;;5025389;28;19992;-93
2022/12/03 01:49:53;;;;;;;;;;;4.20;99.90;;;;;;5027402;28;19932;-94
2022/12/03 01:52:21;;;;;;;;;;;3.40;99.90;;;;;;5024461;28;19925;-94
2022/12/03 01:54:48;;;;;;;;;;;3.30;99.90;;;;;;5027089;28;19925;-94
2022/12/03 01:57:20;;;;;;;;;;;4.00;99.90;;;;;;5026124;28;19929;-93
2022/12/03 01:59:46;;;;;;;;;;;3.30;99.90;;;;;;5025450;28;19967;-93
2022/12/03 02:02:32;;;;;;;;;;;3.20;99.90;;;;;;5024989;28;19925;-93
2022/12/03 02:04:58;;;;;;;;;;;3.20;99.90;;;;;;5041273;28;19925;-93
2022/12/03 02:07:23;;;;;;;;;;;3.50;99.90;;;;;;5009492;28;20001;-93
2022/12/03 02:09:49;;;;;;;;;;;3.10;99.90;;;;;;5026874;28;19952;-92
2022/12/03 02:12:16;;;;;;;;;;;3.20;99.90;;;;;;5024722;28;19929;-93
2022/12/03 02:14:42;;;;;;;;;;;3.60;99.90;;;;;;5027353;28;19925;-93
2022/12/03 02:17:08;;;;;;;;;;;3.20;99.90;;;;;;5024713;28;19929;-93
2022/12/03 02:19:34;;;;;;;;;;;3.10;99.90;;;;;;5026723;28;19925;-94
2022/12/03 02:22:00;;;;;;;;;;;3.10;99.90;;;;;;5009241;28;19939;-94
2022/12/03 02:24:44;;;;;;;;;;;4.20;99.90;;;;;;5006986;28;19925;-92
2022/12/03 02:27:09;;;;;;;;;;;3.10;99.90;;;;;;5018736;28;20361;-92
2022/12/03 02:29:35;;;;;;;;;;;3.20;99.90;;;;;;5009401;28;19925;-92
2022/12/03 02:32:01;;;;;;;;;;;3.20;99.90;;;;;;5013996;28;20388;-94
2022/12/03 02:34:36;;;;;;;;;;;3.10;99.90;;;;;;4988526;28;19989;-93
2022/12/03 02:37:02;;;;;;;;;;;3.20;99.90;;;;;;5005827;28;19940;-94
2022/12/03 02:39:28;;;;;;;;;;;3.10;99.90;;;;;;5005844;28;19931;-93
2022/12/03 02:44:38;;;;;;;;;;;3.50;99.90;;;;;;5050114;28;19933;-94
2022/12/03 02:47:03;;;;;;;;;;;3.50;99.90;;;;;;5001695;28;19937;-93
2022/12/03 02:49:29;;;;;;;;;;;3.00;99.90;;;;;;5003409;28;19922;-94
2022/12/03 02:51:55;;;;;;;;;;;3.00;99.90;;;;;;4998277;28;19956;-95
2022/12/03 02:54:20;;;;;;;;;;;2.30;99.90;;;;;;5017145;28;19936;-93
2022/12/03 02:56:46;;;;;;;;;;;3.00;99.90;;;;;;4993430;28;19925;-95
2022/12/03 02:59:12;;;;;;;;;;;3.10;99.90;;;;;;4992372;28;19991;-92
2022/12/03 03:01:37;;;;;;;;;;;3.20;99.90;;;;;;5006979;28;19926;-91
2022/12/03 03:04:03;;;;;;;;;;;3.10;99.90;;;;;;5023604;28;19929;-93
2022/12/03 03:06:29;;;;;;;;;;;3.10;99.90;;;;;;5026355;28;19944;-93
2022/12/03 03:08:55;;;;;;;;;;;3.10;99.90;;;;;;5023551;28;19932;-93
2022/12/03 03:11:21;;;;;;;;;;;3.50;99.90;;;;;;5009415;28;19925;-95
2022/12/03 03:13:46;;;;;;;;;;;4.00;99.90;;;;;;5018508;28;19925;-94
2022/12/03 03:16:12;;;;;;;;;;;3.10;99.90;;;;;;4999583;28;19989;-94
2022/12/03 03:18:38;;;;;;;;;;;3.10;99.90;;;;;;5025161;28;19956;-93
2022/12/03 03:21:03;;;;;;;;;;;3.10;99.90;;;;;;5008436;28;19929;-94
2022/12/03 03:23:29;;;;;;;;;;;3.00;99.90;;;;;;5006581;28;19925;-94
2022/12/03 03:26:15;;;;;;;;;;;3.00;99.90;;;;;;5023693;28;19936;-95
2022/12/03 03:28:42;;;;;;;;;;;3.00;99.90;;;;;;5025818;28;20273;-93
2022/12/03 03:31:09;;;;;;;;;;;2.90;99.90;;;;;;5024730;28;19944;-94
2022/12/03 03:33:36;;;;;;;;;;;2.90;99.90;;;;;;5023788;28;19925;-94
2022/12/03 03:36:02;;;;;;;;;;;3.30;99.90;;;;;;5004938;28;20345;-93
2022/12/03 03:38:28;;;;;;;;;;;2.90;99.90;;;;;;5003410;28;19936;-95
2022/12/03 03:40:53;;;;;;;;;;;2.90;99.90;;;;;;5005585;28;20066;-93
2022/12/03 03:43:22;;;;;;;;;;;3.20;99.90;;;;;;5011421;28;19976;-93
2022/12/03 03:45:49;;;;;;;;;;;2.90;99.90;;;;;;5023042;28;20040;-94
2022/12/03 03:48:14;;;;;;;;;;;2.90;99.90;;;;;;5023670;28;20318;-93
2022/12/03 03:50:41;;;;;;;;;;;2.90;99.90;;;;;;5004690;28;20411;-95
2022/12/03 03:53:07;;;;;;;;;;;2.90;99.90;;;;;;5014333;28;19945;-93
2022/12/03 03:55:32;;;;;;;;;;;3.20;99.90;;;;;;5019310;28;20255;-94
2022/12/03 03:57:58;;;;;;;;;;;3.10;99.90;;;;;;5040976;28;19925;-94
2022/12/03 04:00:24;;;;;;;;;;;3.30;99.90;;;;;;5054650;28;19929;-94
2022/12/03 04:02:50;;;;;;;;;;;2.90;99.90;;;;;;4996486;28;20018;-93
2022/12/03 04:05:18;;;;;;;;;;;2.90;99.90;;;;;;5015348;28;20385;-94
2022/12/03 04:07:44;;;;;;;;;;;2.90;99.90;;;;;;5022223;28;20022;-96
2022/12/03 04:12:54;;;;;;;;;;;3.00;99.90;;;;;;5048257;28;19929;-94
2022/12/03 04:15:20;;;;;;;;;;;3.50;99.90;;;;;;5026812;28;19960;-94
2022/12/03 04:18:41;;;;;;;;;;;3.00;99.90;;;;;;5027213;28;19967;-94
2022/12/03 04:20:31;;;;;;;;;;;2.80;99.90;;;;;;5046820;28;20015;-94
2022/12/03 04:22:56;;;;;;;;;;;2.90;99.90;;;;;;5006376;28;19930;-94
2022/12/03 04:30:51;;;;;;;;;;;1.90;99.90;;;;;;5030622;28;19925;-94
2022/12/03 04:36:01;;;;;;;;;;;2.70;99.90;;;;;;5044229;28;20003;-94
2022/12/03 04:38:27;;;;;;;;;;;2.70;99.90;;;;;;5010038;28;20023;-93
2022/12/03 04:41:05;;;;;;;;;;;3.50;99.90;;;;;;5025514;28;19936;-92
2022/12/03 04:43:31;;;;;;;;;;;3.50;99.90;;;;;;4993762;28;19926;-94
2022/12/03 04:45:57;;;;;;;;;;;3.50;99.90;;;;;;5012902;28;19936;-93
2022/12/03 04:48:23;;;;;;;;;;;3.60;99.90;;;;;;5011520;28;19929;-93
2022/12/03 04:50:49;;;;;;;;;;;2.90;99.90;;;;;;5028384;28;19925;-94
2022/12/03 04:53:14;;;;;;;;;;;2.90;99.90;;;;;;5011045;28;20274;-93
2022/12/03 04:55:40;;;;;;;;;;;3.40;99.90;;;;;;5011473;28;19925;-93
2022/12/03 04:58:06;;;;;;;;;;;3.10;99.90;;;;;;5008837;28;19926;-93
2022/12/03 05:00:31;;;;;;;;;;;3.10;99.90;;;;;;5029517;28;19972;-96
2022/12/03 05:02:57;;;;;;;;;;;2.90;99.90;;;;;;5011775;28;19925;-95
2022/12/03 05:05:23;;;;;;;;;;;3.30;99.90;;;;;;5059338;28;19929;-94
2022/12/03 05:07:48;;;;;;;;;;;3.00;99.90;;;;;;5033371;28;19925;-94
2022/12/03 05:10:14;;;;;;;;;;;2.90;99.90;;;;;;5007385;28;19940;-94
2022/12/03 05:12:39;;;;;;;;;;;3.10;99.90;;;;;;5022780;28;19929;-95
2022/12/03 05:15:05;;;;;;;;;;;3.40;99.90;;;;;;4998478;28;19925;-93
2022/12/03 05:17:31;;;;;;;;;;;2.80;99.90;;;;;;5009836;28;19931;-94
2022/12/03 05:22:40;;;;;;;;;;;2.80;99.90;;;;;;5011722;28;19925;-94
2022/12/03 05:25:06;;;;;;;;;;;2.80;99.90;;;;;;5027424;28;19967;-93
2022/12/03 05:27:32;;;;;;;;;;;2.90;99.90;;;;;;5058560;28;19925;-94
2022/12/03 05:29:57;;;;;;;;;;;2.80;99.90;;;;;;5006596;28;19925;-95
2022/12/03 05:32:23;;;;;;;;;;;2.90;99.90;;;;;;5011036;28;19940;-95
2022/12/03 05:34:49;;;;;;;;;;;2.80;99.90;;;;;;5022612;28;20287;-95
2022/12/03 05:37:14;;;;;;;;;;;3.30;99.90;;;;;;5024743;28;20637;-92
2022/12/03 05:39:40;;;;;;;;;;;3.40;99.90;;;;;;5021804;28;19937;-92
2022/12/03 05:44:50;;;;;;;;;;;3.10;99.90;;;;;;5060802;28;19968;-94
2022/12/03 05:47:15;;;;;;;;;;;3.50;99.90;;;;;;5014463;28;19947;-96
2022/12/03 05:49:41;;;;;;;;;;;3.60;99.90;;;;;;5044134;28;19921;-93
2022/12/03 05:52:06;;;;;;;;;;;2.80;99.90;;;;;;5068741;28;19944;-94
2022/12/03 05:54:32;;;;;;;;;;;2.70;99.90;;;;;;5035478;28;20035;-94
2022/12/03 05:56:58;;;;;;;;;;;2.70;99.90;;;;;;5025144;28;20006;-94
2022/12/03 05:59:23;;;;;;;;;;;2.70;99.90;;;;;;5009985;28;19929;-96
2022/12/03 06:01:49;;;;;;;;;;;2.70;99.90;;;;;;5026414;28;19969;-94
2022/12/03 06:04:14;;;;;;;;;;;2.70;99.90;;;;;;5009103;28;19929;-94
2022/12/03 06:06:40;;;;;;;;;;;2.60;99.90;;;;;;5009677;28;19925;-95
2022/12/03 06:09:05;;;;;;;;;;;2.70;99.90;;;;;;5057749;28;19932;-95
2022/12/03 06:11:33;;;;;;;;;;;2.60;99.90;;;;;;5058835;28;20007;-95
2022/12/03 06:14:02;;;;;;;;;;;3.60;99.90;;;;;;5009339;28;19972;-96
2022/12/03 06:16:28;;;;;;;;;;;2.70;99.90;;;;;;5025358;28;19925;-93
2022/12/03 06:18:53;;;;;;;;;;;3.10;99.90;;;;;;5025717;28;19925;-95
2022/12/03 06:21:19;;;;;;;;;;;2.70;99.90;;;;;;5007899;28;19932;-93
2022/12/03 06:23:45;;;;;;;;;;;3.40;99.90;;;;;;5025949;28;19925;-93
2022/12/03 06:26:10;;;;;;;;;;;2.60;99.90;;;;;;5025546;28;20387;-95
2022/12/03 06:28:36;;;;;;;;;;;2.60;99.90;;;;;;5008447;28;19926;-95
2022/12/03 06:31:02;;;;;;;;;;;3.10;99.90;;;;;;5008733;28;19925;-94
2022/12/03 06:33:28;;;;;;;;;;;2.60;99.90;;;;;;5010121;28;19932;-95
2022/12/03 06:35:53;;;;;;;;;;;2.60;99.90;;;;;;5009161;28;20362;-94
2022/12/03 06:38:19;;;;;;;;;;;2.60;99.90;;;;;;5024663;28;19936;-94
2022/12/03 06:40:44;;;;;;;;;;;3.20;99.90;;;;;;5025686;28;19924;-94
2022/12/03 06:43:10;;;;;;;;;;;3.30;99.90;;;;;;5008443;28;19925;-95
2022/12/03 06:45:36;;;;;;;;;;;2.60;99.90;;;;;;5026584;28;19931;-95
2022/12/03 06:48:01;;;;;;;;;;;2.50;99.90;;;;;;5007321;28;20357;-95
2022/12/03 06:50:27;;;;;;;;;;;2.50;99.90;;;;;;5009604;28;19925;-93
2022/12/03 06:52:53;;;;;;;;;;;2.70;99.90;;;;;;5007099;28;19929;-94
2022/12/03 06:55:18;;;;;;;;;;;3.10;99.90;;;;;;5009372;28;19925;-94
2022/12/03 06:57:44;;;;;;;;;;;2.60;99.90;;;;;;5008552;28;19945;-94
2022/12/03 07:00:10;;;;;;;;;;;2.60;99.90;;;;;;5024741;28;19925;-94
2022/12/03 07:02:35;;;;;;;;;;;2.60;99.90;;;;;;5009209;28;19937;-94
2022/12/03 07:05:01;;;;;;;;;;;2.50;99.90;;;;;;5008185;28;19925;-93
2022/12/03 07:07:27;;;;;;;;;;;2.50;99.90;;;;;;5024706;28;19925;-96
2022/12/03 07:09:52;;;;;;;;;;;2.50;99.90;;;;;;5023369;28;19956;-93
2022/12/03 07:12:18;;;;;;;;;;;3.30;99.90;;;;;;5024855;28;19948;-94
2022/12/03 07:14:44;;;;;;;;;;;2.60;99.90;;;;;;5009457;28;19925;-94
2022/12/03 07:17:09;;;;;;;;;;;2.20;99.90;;;;;;5030536;28;19985;-95
2022/12/03 07:19:35;;;;;;;;;;;2.00;99.90;;;;;;5035492;28;19925;-95
2022/12/03 07:22:01;;;;;;;;;;;2.50;99.90;;;;;;5016266;28;19929;-95
2022/12/03 07:24:27;;;;;;;;;;;2.70;99.90;;;;;;5033988;28;19936;-94
2022/12/03 07:26:53;;;;;;;;;;;2.40;99.90;;;;;;5017305;28;19930;-95
2022/12/03 07:29:18;;;;;;;;;;;2.40;99.90;;;;;;5019666;28;20003;-95
2022/12/03 07:31:44;;;;;;;;;;;2.40;99.90;;;;;;5008569;28;19936;-93
2022/12/03 07:34:09;;;;;;;;;;;3.10;99.90;;;;;;5008588;28;19980;-95
2022/12/03 07:36:35;;;;;;;;;;;2.50;99.90;;;;;;5008196;28;19979;-95
2022/12/03 07:39:01;;;;;;;;;;;2.50;99.90;;;;;;5007799;28;19932;-94
2022/12/03 07:41:26;;;;;;;;;;;3.00;99.90;;;;;;5025950;28;19925;-96
2022/12/03 07:43:52;;;;;;;;;;;2.60;99.90;;;;;;5017427;28;19926;-93
2022/12/03 07:46:17;;;;;;;;;;;3.20;99.90;;;;;;4995478;28;19961;-95
2022/12/03 07:48:43;;;;;;;;;;;2.80;99.90;;;;;;5003965;28;19951;-94
2022/12/03 07:51:09;;;;;;;;;;;2.40;99.90;;;;;;4993829;28;19925;-94
2022/12/03 07:53:35;;;;;;;;;;;3.20;99.90;;;;;;5003314;28;19937;-95
2022/12/03 07:56:01;;;;;;;;;;;2.60;99.90;;;;;;4991758;28;19925;-94
2022/12/03 07:58:26;;;;;;;;;;;2.40;99.90;;;;;;5021175;28;19933;-96
2022/12/03 08:00:52;;;;;;;;;;;2.60;99.90;;;;;;5018498;28;19925;-94
2022/12/03 08:03:18;;;;;;;;;;;2.30;99.90;;;;;;4997514;28;20401;-94
2022/12/03 08:05:43;;;;;;;;;;;2.30;99.90;;;;;;4994295;28;19952;-95
2022/12/03 08:08:09;;;;;;;;;;;2.20;99.90;;;;;;4987526;28;19925;-95
2022/12/03 08:10:35;;;;;;;;;;;2.80;99.90;;;;;;4990380;28;19941;-95
2022/12/03 08:13:01;;;;;;;;;;;2.30;99.90;;;;;;5023773;28;19969;-94
2022/12/03 08:15:30;;;;;;;;;;;2.30;99.90;;;;;;5007660;28;19925;-95
2022/12/03 08:18:00;;;;;;;;;;;2.20;99.90;;;;;;5023190;28;19926;-96
2022/12/03 08:20:27;;;;;;;;;;;2.20;99.90;;;;;;5021687;28;20396;-94
2022/12/03 08:22:53;;;;;;;;;;;2.20;99.90;;;;;;5020561;28;19933;-94
2022/12/03 08:25:19;;;;;;;;;;;2.20;99.90;;;;;;5013803;28;19925;-96
2022/12/03 08:27:45;;;;;;;;;;;2.10;99.90;;;;;;5021130;28;19972;-95
2022/12/03 08:30:12;;;;;;;;;;;2.30;99.90;;;;;;5013326;28;20009;-95
2022/12/03 08:32:37;;;;;;;;;;;2.20;99.90;;;;;;5032579;28;19995;-95
2022/12/03 08:35:19;;;;;;;;;;;2.10;99.90;;;;;;5005425;28;19960;-95
2022/12/03 08:37:45;;;;;;;;;;;1.40;99.90;;;;;;5023413;28;20288;-94
2022/12/03 08:40:47;;;;;;;;;;;2.10;99.90;;;;;;5023404;28;19925;-94
2022/12/03 08:43:20;;;;;;;;;;;2.20;99.90;;;;;;5005564;28;19925;-95
2022/12/03 08:45:48;;;;;;;;;;;2.20;99.90;;;;;;5017320;28;19932;-95
2022/12/03 08:48:25;;;;;;;;;;;2.20;99.90;;;;;;5032949;28;19988;-92
2022/12/03 08:50:52;;;;;;;;;;;2.10;99.90;;;;;;5031992;28;20003;-95
2022/12/03 08:53:31;;;;;;;;;;;2.20;99.90;;;;;;5021089;28;19925;-94
2022/12/03 08:55:59;;;;;;;;;;;2.20;99.90;;;;;;5024267;28;19932;-94
2022/12/03 08:58:27;;;;;;;;;;;2.60;99.90;;;;;;5020037;28;19971;-94
2022/12/03 09:00:58;;;;;;;;;;;2.20;99.90;;;;;;5004003;28;19936;-95
2022/12/03 09:03:24;;;;;;;;;;;2.20;99.90;;;;;;5004323;28;19926;-94
2022/12/03 09:05:50;;;;;;;;;;;2.20;99.90;;;;;;5003008;28;19964;-95
2022/12/03 09:08:15;;;;;;;;;;;2.20;99.90;;;;;;5003538;28;19925;-93
2022/12/03 09:10:41;;;;;;;;;;;2.20;99.90;;;;;;5003162;28;19972;-95
2022/12/03 09:13:06;;;;;;;;;;;2.10;99.90;;;;;;5010623;28;19925;-94
2022/12/03 09:15:32;;;;;;;;;;;2.20;99.90;;;;;;5011436;28;19935;-93
2022/12/03 09:17:58;;;;;;;;;;;3.10;99.90;;;;;;5026992;28;20173;-94
2022/12/03 09:20:23;;;;;;;;;;;2.60;99.90;;;;;;5011694;28;19940;-94
2022/12/03 09:22:49;;;;;;;;;;;2.30;99.90;;;;;;5009455;28;19932;-93
2022/12/03 09:25:15;;;;;;;;;;;2.10;99.90;;;;;;5011591;28;19935;-94
2022/12/03 09:27:41;;;;;;;;;;;2.10;99.90;;;;;;5023212;28;19936;-94
2022/12/03 09:30:07;;;;;;;;;;;2.60;99.90;;;;;;4991548;28;19969;-94
2022/12/03 09:32:32;;;;;;;;;;;2.00;99.90;;;;;;5006523;28;19932;-93
2022/12/03 09:34:58;;;;;;;;;;;2.60;99.90;;;;;;4991234;28;19925;-95
2022/12/03 09:37:23;;;;;;;;;;;2.60;99.90;;;;;;4989590;28;19925;-94
2022/12/03 09:39:49;;;;;;;;;;;2.00;99.90;;;;;;5007233;28;20246;-94
2022/12/03 09:42:15;;;;;;;;;;;2.10;99.90;;;;;;5007500;28;20224;-94
2022/12/03 09:44:41;;;;;;;;;;;2.10;99.90;;;;;;5021419;28;19929;-94
2022/12/03 09:47:06;;;;;;;;;;;2.10;99.90;;;;;;5010573;28;19925;-96
2022/12/03 09:49:34;;;;;;;;;;;2.10;99.90;;;;;;5026489;28;19925;-93
2022/12/03 09:52:00;;;;;;;;;;;2.40;99.90;;;;;;5025727;28;19948;-95
2022/12/03 09:54:27;;;;;;;;;;;2.80;99.90;;;;;;5027976;28;19932;-94
2022/12/03 09:56:54;;;;;;;;;;;2.30;99.90;;;;;;5022948;28;19949;-95
2022/12/03 09:59:21;;;;;;;;;;;2.70;99.90;;;;;;5033274;28;19925;-95
2022/12/03 10:01:46;;;;;;;;;;;2.10;99.90;;;;;;5006519;28;19925;-95
2022/12/03 10:04:12;;;;;;;;;;;2.60;99.90;;;;;;5027018;28;19931;-94
2022/12/03 10:06:38;;;;;;;;;;;2.10;99.90;;;;;;5009741;28;19929;-94
2022/12/03 10:09:05;;;;;;;;;;;2.90;99.90;;;;;;5027277;28;19933;-96
2022/12/03 10:11:31;;;;;;;;;;;2.70;99.90;;;;;;5012462;28;19964;-94
2022/12/03 10:13:57;;;;;;;;;;;2.80;99.90;;;;;;5013260;28;19926;-95
2022/12/03 10:16:23;;;;;;;;;;;2.60;99.90;;;;;;5017377;28;20044;-94
2022/12/03 10:18:54;;;;;;;;;;;2.10;99.90;;;;;;4998740;28;19984;-94
2022/12/03 10:21:24;;;;;;;;;;;2.00;99.90;;;;;;5006858;28;19965;-94
2022/12/03 10:24:09;;;;;;;;;;;2.70;99.90;;;;;;5005771;28;19941;-94
2022/12/03 10:26:38;;;;;;;;;;;2.00;99.90;;;;;;5010653;28;19929;-93
2022/12/03 10:29:10;;;;;;;;;;;2.70;99.90;;;;;;5022935;28;19929;-93
2022/12/03 10:31:36;;;;;;;;;;;2.20;99.90;;;;;;5025657;28;20411;-93
2022/12/03 10:34:01;;;;;;;;;;;2.20;99.90;;;;;;5009564;28;19951;-94
2022/12/03 10:36:27;;;;;;;;;;;1.30;99.90;;;;;;5001797;28;19926;-94
2022/12/03 10:39:08;;;;;;;;;;;2.00;99.90;;;;;;4998333;28;19929;-94
2022/12/03 10:41:34;;;;;;;;;;;2.00;99.90;;;;;;5006218;28;19940;-95
2022/12/03 10:44:18;;;;;;;;;;;2.30;99.90;;;;;;5011536;28;20004;-94
2022/12/03 10:46:44;;;;;;;;;;;2.10;99.90;;;;;;5027870;28;19925;-94
2022/12/03 10:49:15;;;;;;;;;;;2.00;99.90;;;;;;5021538;28;19925;-94
2022/12/03 10:51:41;;;;;;;;;;;2.10;99.90;;;;;;5021947;28;20000;-93
2022/12/03 10:54:13;;;;;;;;;;;2.10;99.90;;;;;;5005676;28;19925;-93
2022/12/03 10:56:39;;;;;;;;;;;2.10;99.90;;;;;;5006440;28;19933;-95
2022/12/03 10:59:05;;;;;;;;;;;2.20;99.90;;;;;;5038074;28;19925;-93
2022/12/03 11:01:31;;;;;;;;;;;2.20;99.90;;;;;;4995111;28;19957;-95
2022/12/03 11:04:01;;;;;;;;;;;2.10;99.90;;;;;;5012310;28;20440;-94
2022/12/03 11:06:29;;;;;;;;;;;2.70;99.90;;;;;;5013511;28;19965;-94
2022/12/03 11:08:56;;;;;;;;;;;2.00;99.90;;;;;;5022643;28;19925;-93
2022/12/03 11:11:26;;;;;;;;;;;2.00;99.90;;;;;;5012359;28;20020;-93
2022/12/03 11:13:56;;;;;;;;;;;1.90;99.90;;;;;;5005062;28;19933;-95
2022/12/03 11:16:40;;;;;;;;;;;1.90;99.90;;;;;;5020358;28;19947;-94
2022/12/03 11:19:18;;;;;;;;;;;1.90;99.90;;;;;;5024739;28;19925;-93
2022/12/03 11:22:23;;;;;;;;;;;2.00;99.90;;;;;;5024393;28;20012;-95
2022/12/03 11:25:08;;;;;;;;;;;1.90;99.90;;;;;;4964711;28;19926;-94
2022/12/03 11:27:35;;;;;;;;;;;3.00;99.90;;;;;;4958581;28;19926;-93
2022/12/03 11:30:01;;;;;;;;;;;2.00;99.90;;;;;;4972673;28;19925;-93
2022/12/03 11:32:41;;;;;;;;;;;2.60;99.90;;;;;;5015090;28;19932;-96
2022/12/03 11:35:11;;;;;;;;;;;2.00;99.90;;;;;;5015685;28;19975;-94
2022/12/03 11:37:40;;;;;;;;;;;2.10;99.90;;;;;;5015873;28;19925;-93
2022/12/03 11:40:14;;;;;;;;;;;2.00;99.90;;;;;;5023631;28;19932;-94
2022/12/03 11:42:40;;;;;;;;;;;2.20;99.90;;;;;;5026971;28;19929;-93
2022/12/03 11:45:14;;;;;;;;;;;2.30;99.90;;;;;;5030308;28;19983;-94
2022/12/03 11:47:58;;;;;;;;;;;2.10;99.90;;;;;;5035727;28;19933;-95
2022/12/03 11:50:26;;;;;;;;;;;2.00;99.90;;;;;;5043854;28;20068;-93
2022/12/03 12:01:39;;;;;;;;;;;2.10;99.90;;;;;;5762339;22;20354;-89
2022/12/03 12:07:44;;;;;;;;;;;2.10;99.90;;;;;;5022046;28;20265;-91
2022/12/03 12:10:10;;;;;;;;;;;2.20;99.90;;;;;;5011321;28;20016;-91
2022/12/03 12:12:41;;;;;;;;;;;1.00;99.90;;;;;;5035774;28;19976;-89
2022/12/03 12:15:33;;;;;;;;;;;2.10;99.90;;;;;;5009218;28;20388;-92
2022/12/03 12:18:22;;;;;;;;;;;2.10;99.90;;;;;;4998268;28;19930;-89
2022/12/03 12:20:50;;;;;;;;;;;2.10;99.90;;;;;;4999892;28;19925;-87
2022/12/03 12:23:21;;;;;;;;;;;3.30;99.90;;;;;;5004110;28;20257;-89
2022/12/03 12:25:46;;;;;;;;;;;2.20;99.90;;;;;;5015321;28;19933;-88
2022/12/03 12:28:12;;;;;;;;;;;3.50;99.90;;;;;;4989919;28;20037;-89
2022/12/03 12:30:38;;;;;;;;;;;2.20;99.90;;;;;;4997998;28;19933;-90
2022/12/03 12:33:10;;;;;;;;;;;2.90;99.90;;;;;;5007251;28;20400;-89
2022/12/03 12:35:36;;;;;;;;;;;2.20;99.90;;;;;;5007197;28;20368;-89
2022/12/03 12:38:21;;;;;;;;;;;2.20;99.90;;;;;;4997672;28;19956;-89
2022/12/03 12:40:48;;;;;;;;;;;2.90;99.90;;;;;;4979395;28;19936;-89
2022/12/03 12:43:18;;;;;;;;;;;2.20;99.90;;;;;;5006674;28;19925;-90
2022/12/03 12:45:44;;;;;;;;;;;2.20;99.90;;;;;;5025866;28;20356;-89
2022/12/03 12:48:15;;;;;;;;;;;3.00;99.90;;;;;;5019212;28;19925;-90
2022/12/03 12:50:41;;;;;;;;;;;2.10;99.90;;;;;;5006960;28;19925;-88
2022/12/03 12:53:11;;;;;;;;;;;2.50;99.90;;;;;;5022666;28;19925;-90
2022/12/03 12:55:36;;;;;;;;;;;3.20;99.90;;;;;;5025694;28;19936;-88
2022/12/03 12:58:08;;;;;;;;;;;2.20;99.90;;;;;;4990016;28;19925;-88
2022/12/03 13:00:34;;;;;;;;;;;2.20;99.90;;;;;;5008639;28;19988;-88
2022/12/03 13:03:00;;;;;;;;;;;2.80;99.90;;;;;;4998961;28;19977;-89
2022/12/03 13:05:35;;;;;;;;;;;2.10;99.90;;;;;;5007380;28;19991;-88
2022/12/03 13:08:00;;;;;;;;;;;2.60;99.90;;;;;;4997366;28;19929;-88
2022/12/03 13:10:31;;;;;;;;;;;2.70;99.90;;;;;;5033789;28;20067;-88
2022/12/03 13:13:01;;;;;;;;;;;2.00;99.90;;;;;;4998199;28;19925;-89
2022/12/03 13:15:45;;;;;;;;;;;2.10;99.90;;;;;;4997794;28;20005;-89
2022/12/03 13:18:26;;;;;;;;;;;2.00;99.90;;;;;;5012006;28;20293;-87
2022/12/03 13:20:52;;;;;;;;;;;2.10;99.90;;;;;;5014201;28;19926;-88
2022/12/03 13:23:24;;;;;;;;;;;2.10;99.90;;;;;;5002070;28;19975;-87
2022/12/03 13:25:51;;;;;;;;;;;3.10;99.90;;;;;;4997417;28;20017;-86
2022/12/03 13:28:17;;;;;;;;;;;2.70;99.90;;;;;;5009737;28;20318;-89
2022/12/03 13:30:43;;;;;;;;;;;2.40;99.90;;;;;;5017599;28;19979;-89
2022/12/03 13:33:18;;;;;;;;;;;2.00;99.90;;;;;;5014390;28;19925;-89
2022/12/03 13:35:45;;;;;;;;;;;2.10;99.90;;;;;;5006129;28;20032;-88
2022/12/03 13:38:12;;;;;;;;;;;2.10;99.90;;;;;;5030529;28;19925;-87
2022/12/03 13:40:38;;;;;;;;;;;3.20;99.90;;;;;;5017664;28;19984;-87
2022/12/03 13:43:09;;;;;;;;;;;2.00;99.90;;;;;;4984451;28;20407;-86
2022/12/03 13:45:36;;;;;;;;;;;3.00;99.90;;;;;;4992427;28;19925;-86
2022/12/03 13:48:03;;;;;;;;;;;3.10;99.90;;;;;;5012269;28;20389;-87
2022/12/03 13:50:28;;;;;;;;;;;3.00;99.90;;;;;;4999174;28;20250;-86
2022/12/03 13:52:54;;;;;;;;;;;1.90;99.90;;;;;;5003825;28;19933;-85
2022/12/03 13:55:25;;;;;;;;;;;2.00;99.90;;;;;;4981676;28;20329;-87
2022/12/03 13:57:51;;;;;;;;;;;1.90;99.90;;;;;;5007291;28;19925;-88
2022/12/03 14:00:16;;;;;;;;;;;1.80;99.90;;;;;;4997292;28;20277;-87
2022/12/03 14:02:42;;;;;;;;;;;1.80;99.90;;;;;;4994831;28;19925;-87
2022/12/03 14:05:09;;;;;;;;;;;2.00;99.90;;;;;;5011192;28;19952;-85
2022/12/03 14:07:35;;;;;;;;;;;1.90;99.90;;;;;;4997694;28;19925;-87
2022/12/03 14:10:00;;;;;;;;;;;2.30;99.90;;;;;;4997378;28;19957;-86
2022/12/03 14:12:26;;;;;;;;;;;1.80;99.90;;;;;;4997146;28;20399;-87
2022/12/03 14:14:52;;;;;;;;;;;2.50;99.90;;;;;;5001151;28;19929;-86
2022/12/03 14:17:18;;;;;;;;;;;1.70;99.90;;;;;;5016985;28;19979;-87
2022/12/03 14:19:44;;;;;;;;;;;1.70;99.90;;;;;;5017259;28;19931;-87
2022/12/03 14:22:10;;;;;;;;;;;1.70;99.90;;;;;;5016732;28;19970;-87
2022/12/03 14:24:36;;;;;;;;;;;1.60;99.90;;;;;;5016462;28;20238;-87
2022/12/03 14:27:02;;;;;;;;;;;2.50;99.90;;;;;;5017775;28;19972;-87
2022/12/03 14:29:27;;;;;;;;;;;1.50;99.90;;;;;;5013173;28;20380;-86
2022/12/03 14:31:53;;;;;;;;;;;1.50;99.90;;;;;;4997261;28;19929;-88
2022/12/03 14:34:18;;;;;;;;;;;2.70;99.90;;;;;;5015968;28;20012;-86
2022/12/03 14:36:44;;;;;;;;;;;1.40;99.90;;;;;;5000438;28;19925;-87
2022/12/03 14:39:10;;;;;;;;;;;1.50;99.90;;;;;;5019338;28;19925;-89
2022/12/03 14:44:22;;;;;;;;;;;2.50;99.90;;;;;;5011687;28;20015;-88
2022/12/03 14:46:48;;;;;;;;;;;1.50;99.90;;;;;;5012918;28;19926;-87
2022/12/03 14:49:13;;;;;;;;;;;2.10;99.90;;;;;;5006609;28;19925;-90
2022/12/03 14:51:39;;;;;;;;;;;1.70;99.90;;;;;;5001493;28;19925;-88
2022/12/03 14:54:05;;;;;;;;;;;1.40;99.90;;;;;;4999246;28;19926;-89
2022/12/03 14:56:30;;;;;;;;;;;2.40;99.90;;;;;;5012642;28;19940;-86
2022/12/03 14:58:59;;;;;;;;;;;1.30;99.90;;;;;;4997986;28;19948;-88
2022/12/03 15:01:24;;;;;;;;;;;1.30;99.90;;;;;;4993175;28;20292;-90
2022/12/03 15:03:50;;;;;;;;;;;1.30;99.90;;;;;;5005183;28;19925;-87
2022/12/03 15:06:16;;;;;;;;;;;2.30;99.90;;;;;;4984685;28;19936;-90